Storm Events Database

Event Details

Event Hail
Magnitude 0.75 in.
State MISSISSIPPI
County/Area FORREST
WFO JAN
Begin Date 06/20/2008 17:25:00 CST-6
Begin Range 5
Begin Azimuth SSW
Begin Location CARNES
Begin Lat/Lon 30.92/-89.31
End Date 06/20/2008 17:25:00 CST-6
Deaths Direct/Indirect 0/0 (fatality details below, when available...)
Injuries Direct/Indirect 0/0
Property Damage 0.00K
Crop Damage 0.00K
Episode Narrative Thunderstorms on June 20th got an early start during the morning hours and only increased in coverage and intensity through the day. Scattered to numerous severe storms occurred on this day and produced a mix of large hail and damaging winds. The worst wind damage was around Vicksburg where numerous trees were blown down. As for hail, some locations received hail between quarter and golf ball size. That size hail is quite large for June standards.
Event Narrative


All events for this episode:

Location County/Zone St. Date Time T.Z. Type Mag Dth Inj PrD CrD
Totals: 0 0 147.00K 0.00K
WIGGINS LEAKE CO. MS 06/20/2008 07:19 CST-6 Hail 0.88 in. 0 0 0.00K 0.00K
CANTON MADISON CO. MS 06/20/2008 07:23 CST-6 Thunderstorm Wind 61 kts. EG 0 0 30.00K 0.00K
NATCHEZ ADAMS CO. MS 06/20/2008 12:03 CST-6 Thunderstorm Wind 50 kts. EG 0 0 0.00K 0.00K
PALMYRA WARREN CO. MS 06/20/2008 12:13 CST-6 Hail 1.00 in. 0 0 0.00K 0.00K
VICKSBURG ARPT WARREN CO. MS 06/20/2008 12:28 CST-6 Thunderstorm Wind 62 kts. MG 0 0 55.00K 0.00K
PINEVILLE SMITH CO. MS 06/20/2008 12:34 CST-6 Hail 1.00 in. 0 0 0.00K 0.00K
VICKSBURG WARREN CO. MS 06/20/2008 12:36 CST-6 Thunderstorm Wind 60 kts. EG 0 0 50.00K 0.00K
CHURCH HILL JEFFERSON CO. MS 06/20/2008 12:42 CST-6 Hail 0.88 in. 0 0 0.00K 0.00K
LOUIN JASPER CO. MS 06/20/2008 12:46 CST-6 Hail 1.00 in. 0 0 0.00K 0.00K
STAMPLEY JEFFERSON CO. MS 06/20/2008 13:00 CST-6 Thunderstorm Wind 50 kts. EG 0 0 0.00K 0.00K
WASHINGTON ADAMS CO. MS 06/20/2008 13:16 CST-6 Thunderstorm Wind 50 kts. EG 0 0 0.00K 0.00K
RALEIGH SMITH CO. MS 06/20/2008 13:18 CST-6 Hail 1.25 in. 0 0 0.00K 0.00K
TERRY HINDS CO. MS 06/20/2008 13:20 CST-6 Thunderstorm Wind 50 kts. EG 0 0 8.00K 0.00K
FAIRCHILDS XRDS HINDS CO. MS 06/20/2008 13:29 CST-6 Hail 0.88 in. 0 0 0.00K 0.00K
OKATIBBEE LAKE LAUDERDALE CO. MS 06/20/2008 13:35 CST-6 Hail 1.00 in. 0 0 0.00K 0.00K
SYLVARENA SMITH CO. MS 06/20/2008 13:52 CST-6 Hail 0.75 in. 0 0 0.00K 0.00K
COHAY SMITH CO. MS 06/20/2008 13:58 CST-6 Hail 1.00 in. 0 0 0.00K 0.00K
MONTICELLO LAWRENCE CO. MS 06/20/2008 14:03 CST-6 Hail 0.75 in. 0 0 0.00K 0.00K
HAZEL NEWTON CO. MS 06/20/2008 14:05 CST-6 Hail 0.75 in. 0 0 0.00K 0.00K
HAMLET JASPER CO. MS 06/20/2008 14:11 CST-6 Hail 1.00 in. 0 0 0.00K 0.00K
TOOMSUBA LAUDERDALE CO. MS 06/20/2008 14:13 CST-6 Thunderstorm Wind 50 kts. EG 0 0 0.00K 0.00K
MAGEE SIMPSON CO. MS 06/20/2008 14:29 CST-6 Hail 0.75 in. 0 0 0.00K 0.00K
HAZEL NEWTON CO. MS 06/20/2008 14:41 CST-6 Hail 1.75 in. 0 0 2.00K 0.00K
HAZEL NEWTON CO. MS 06/20/2008 14:45 CST-6 Thunderstorm Wind 57 kts. EG 0 0 1.00K 0.00K
SEMINARY COVINGTON CO. MS 06/20/2008 15:11 CST-6 Hail 0.75 in. 0 0 0.00K 0.00K
SANDY HOOK MARION CO. MS 06/20/2008 16:00 CST-6 Hail 0.75 in. 0 0 0.00K 0.00K
CRANDALL CLARKE CO. MS 06/20/2008 16:10 CST-6 Hail 1.00 in. 0 0 0.00K 0.00K
MC LAURIN FORREST CO. MS 06/20/2008 16:10 CST-6 Hail 0.75 in. 0 0 0.00K 0.00K
LANGSDALE CLARKE CO. MS 06/20/2008 16:10 CST-6 Thunderstorm Wind 55 kts. EG 0 0 1.00K 0.00K
MC LAURIN FORREST CO. MS 06/20/2008 16:12 CST-6 Thunderstorm Wind 50 kts. EG 0 0 0.00K 0.00K
CARNES FORREST CO. MS 06/20/2008 17:25 CST-6 Hail 0.75 in. 0 0 0.00K 0.00K
Totals: 0 0 147.00K 0.00K